sensor_id;sensor_type;location;lat;lon;timestamp;temperature;humidity
33492;DHT22;20010;51.488;7.232;2022-07-01T00:02:12;14.40;99.90
33492;DHT22;20010;51.488;7.232;2022-07-01T00:05:05;14.40;99.90
33492;DHT22;20010;51.488;7.232;2022-07-01T00:07:52;14.40;99.90
33492;DHT22;20010;51.488;7.232;2022-07-01T00:10:39;14.40;99.90
33492;DHT22;20010;51.488;7.232;2022-07-01T00:13:27;14.50;99.90
33492;DHT22;20010;51.488;7.232;2022-07-01T00:16:14;14.40;99.90
33492;DHT22;20010;51.488;7.232;2022-07-01T00:19:02;14.40;99.90
33492;DHT22;20010;51.488;7.232;2022-07-01T00:21:50;14.40;99.90
33492;DHT22;20010;51.488;7.232;2022-07-01T00:24:37;14.50;99.90
33492;DHT22;20010;51.488;7.232;2022-07-01T00:27:25;14.40;99.90
33492;DHT22;20010;51.488;7.232;2022-07-01T00:30:13;14.40;99.90
33492;DHT22;20010;51.488;7.232;2022-07-01T00:33:01;14.30;99.90
33492;DHT22;20010;51.488;7.232;2022-07-01T00:35:49;14.30;99.90
33492;DHT22;20010;51.488;7.232;2022-07-01T00:38:36;14.40;99.90
33492;DHT22;20010;51.488;7.232;2022-07-01T00:41:23;14.30;99.90
33492;DHT22;20010;51.488;7.232;2022-07-01T00:44:18;14.30;99.90
33492;DHT22;20010;51.488;7.232;2022-07-01T00:47:09;14.30;99.90
33492;DHT22;20010;51.488;7.232;2022-07-01T00:49:57;14.30;99.90
33492;DHT22;20010;51.488;7.232;2022-07-01T00:52:45;14.20;99.90
33492;DHT22;20010;51.488;7.232;2022-07-01T00:55:32;14.20;99.90
33492;DHT22;20010;51.488;7.232;2022-07-01T00:58:19;14.30;99.90
33492;DHT22;20010;51.488;7.232;2022-07-01T01:01:07;14.20;99.90
33492;DHT22;20010;51.488;7.232;2022-07-01T01:03:54;14.20;99.90
33492;DHT22;20010;51.488;7.232;2022-07-01T01:06:41;14.30;99.90
33492;DHT22;20010;51.488;7.232;2022-07-01T01:09:29;14.30;99.90
33492;DHT22;20010;51.488;7.232;2022-07-01T01:12:17;14.40;99.90
33492;DHT22;20010;51.488;7.232;2022-07-01T01:15:04;14.40;99.90
33492;DHT22;20010;51.488;7.232;2022-07-01T01:17:52;14.30;99.90
33492;DHT22;20010;51.488;7.232;2022-07-01T01:20:39;14.30;99.90
33492;DHT22;20010;51.488;7.232;2022-07-01T01:23:26;14.30;99.90
33492;DHT22;20010;51.488;7.232;2022-07-01T01:26:20;14.30;99.90
33492;DHT22;20010;51.488;7.232;2022-07-01T01:29:08;14.20;99.90
33492;DHT22;20010;51.488;7.232;2022-07-01T01:31:55;14.30;99.90
33492;DHT22;20010;51.488;7.232;2022-07-01T01:34:42;14.30;99.90
33492;DHT22;20010;51.488;7.232;2022-07-01T01:37:29;14.30;99.90
33492;DHT22;20010;51.488;7.232;2022-07-01T01:40:17;14.30;99.90
33492;DHT22;20010;51.488;7.232;2022-07-01T01:43:04;14.30;99.90
33492;DHT22;20010;51.488;7.232;2022-07-01T01:45:51;14.30;99.90
33492;DHT22;20010;51.488;7.232;2022-07-01T01:48:38;14.30;99.90
33492;DHT22;20010;51.488;7.232;2022-07-01T01:51:25;14.30;99.90
33492;DHT22;20010;51.488;7.232;2022-07-01T01:54:12;14.30;99.90
33492;DHT22;20010;51.488;7.232;2022-07-01T01:56:59;14.20;99.90
33492;DHT22;20010;51.488;7.232;2022-07-01T01:59:46;14.20;99.90
33492;DHT22;20010;51.488;7.232;2022-07-01T02:02:34;14.20;99.90
33492;DHT22;20010;51.488;7.232;2022-07-01T02:05:23;14.20;99.90
33492;DHT22;20010;51.488;7.232;2022-07-01T02:08:10;14.20;99.90
33492;DHT22;20010;51.488;7.232;2022-07-01T02:10:58;14.20;99.90
33492;DHT22;20010;51.488;7.232;2022-07-01T02:13:48;14.20;99.90
33492;DHT22;20010;51.488;7.232;2022-07-01T02:16:35;14.10;99.90
33492;DHT22;20010;51.488;7.232;2022-07-01T02:19:23;14.10;99.90
33492;DHT22;20010;51.488;7.232;2022-07-01T02:22:10;14.10;99.90
33492;DHT22;20010;51.488;7.232;2022-07-01T02:24:57;14.10;99.90
33492;DHT22;20010;51.488;7.232;2022-07-01T02:27:44;14.10;99.90
33492;DHT22;20010;51.488;7.232;2022-07-01T02:30:31;14.00;99.90
33492;DHT22;20010;51.488;7.232;2022-07-01T02:33:22;14.00;99.90
33492;DHT22;20010;51.488;7.232;2022-07-01T02:36:09;14.10;99.90
33492;DHT22;20010;51.488;7.232;2022-07-01T02:38:56;14.00;99.90
33492;DHT22;20010;51.488;7.232;2022-07-01T02:41:43;14.00;99.90
33492;DHT22;20010;51.488;7.232;2022-07-01T02:44:49;14.00;99.90
33492;DHT22;20010;51.488;7.232;2022-07-01T02:47:38;14.00;99.90
33492;DHT22;20010;51.488;7.232;2022-07-01T02:50:26;14.00;99.90
33492;DHT22;20010;51.488;7.232;2022-07-01T02:53:17;14.00;99.90
33492;DHT22;20010;51.488;7.232;2022-07-01T02:56:04;13.90;99.90
33492;DHT22;20010;51.488;7.232;2022-07-01T02:58:51;14.00;99.90
33492;DHT22;20010;51.488;7.232;2022-07-01T03:01:38;13.90;99.90
33492;DHT22;20010;51.488;7.232;2022-07-01T03:04:25;13.90;99.90
33492;DHT22;20010;51.488;7.232;2022-07-01T03:07:13;13.90;99.90
33492;DHT22;20010;51.488;7.232;2022-07-01T03:10:01;13.90;99.90
33492;DHT22;20010;51.488;7.232;2022-07-01T03:12:48;13.90;99.90
33492;DHT22;20010;51.488;7.232;2022-07-01T03:15:35;13.90;99.90
33492;DHT22;20010;51.488;7.232;2022-07-01T03:18:22;13.80;99.90
33492;DHT22;20010;51.488;7.232;2022-07-01T03:21:09;13.80;99.90
33492;DHT22;20010;51.488;7.232;2022-07-01T03:23:56;13.90;99.90
33492;DHT22;20010;51.488;7.232;2022-07-01T03:26:44;13.80;99.90
33492;DHT22;20010;51.488;7.232;2022-07-01T03:29:31;13.80;99.90
33492;DHT22;20010;51.488;7.232;2022-07-01T03:32:19;13.80;99.90
33492;DHT22;20010;51.488;7.232;2022-07-01T03:35:06;13.80;99.90
33492;DHT22;20010;51.488;7.232;2022-07-01T03:38:13;13.80;99.90
33492;DHT22;20010;51.488;7.232;2022-07-01T03:41:00;13.80;99.90
33492;DHT22;20010;51.488;7.232;2022-07-01T03:43:47;13.70;99.90
33492;DHT22;20010;51.488;7.232;2022-07-01T03:46:35;13.80;99.90
33492;DHT22;20010;51.488;7.232;2022-07-01T03:49:22;13.80;99.90
33492;DHT22;20010;51.488;7.232;2022-07-01T03:52:09;13.70;99.90
33492;DHT22;20010;51.488;7.232;2022-07-01T03:54:56;13.80;99.90
33492;DHT22;20010;51.488;7.232;2022-07-01T03:57:43;13.80;99.90
33492;DHT22;20010;51.488;7.232;2022-07-01T04:00:33;13.80;99.90
33492;DHT22;20010;51.488;7.232;2022-07-01T04:03:21;13.70;99.90
33492;DHT22;20010;51.488;7.232;2022-07-01T04:06:08;13.80;99.90
33492;DHT22;20010;51.488;7.232;2022-07-01T04:08:56;13.80;99.90
33492;DHT22;20010;51.488;7.232;2022-07-01T04:11:44;13.80;99.90
33492;DHT22;20010;51.488;7.232;2022-07-01T04:14:32;13.80;99.90
33492;DHT22;20010;51.488;7.232;2022-07-01T04:17:19;13.80;99.90
33492;DHT22;20010;51.488;7.232;2022-07-01T04:20:06;13.80;99.90
33492;DHT22;20010;51.488;7.232;2022-07-01T04:22:53;13.80;99.90
33492;DHT22;20010;51.488;7.232;2022-07-01T04:25:42;13.80;99.90
33492;DHT22;20010;51.488;7.232;2022-07-01T04:28:29;13.80;99.90
33492;DHT22;20010;51.488;7.232;2022-07-01T04:31:16;13.80;99.90
33492;DHT22;20010;51.488;7.232;2022-07-01T04:34:05;13.80;99.90
33492;DHT22;20010;51.488;7.232;2022-07-01T04:36:52;13.80;99.90
33492;DHT22;20010;51.488;7.232;2022-07-01T04:39:39;13.90;99.90
33492;DHT22;20010;51.488;7.232;2022-07-01T04:42:26;13.90;99.90
33492;DHT22;20010;51.488;7.232;2022-07-01T04:45:14;13.90;99.90
33492;DHT22;20010;51.488;7.232;2022-07-01T04:48:01;13.90;99.90
33492;DHT22;20010;51.488;7.232;2022-07-01T04:50:48;13.90;99.90
33492;DHT22;20010;51.488;7.232;2022-07-01T04:53:35;13.90;99.90
33492;DHT22;20010;51.488;7.232;2022-07-01T04:56:22;13.90;99.90
33492;DHT22;20010;51.488;7.232;2022-07-01T04:59:09;13.90;99.90
33492;DHT22;20010;51.488;7.232;2022-07-01T05:01:56;14.00;99.90
33492;DHT22;20010;51.488;7.232;2022-07-01T05:04:45;14.00;99.90
33492;DHT22;20010;51.488;7.232;2022-07-01T05:07:32;14.00;99.90
33492;DHT22;20010;51.488;7.232;2022-07-01T05:10:19;14.00;99.90
33492;DHT22;20010;51.488;7.232;2022-07-01T05:13:06;14.00;99.90
33492;DHT22;20010;51.488;7.232;2022-07-01T05:15:54;14.00;99.90
33492;DHT22;20010;51.488;7.232;2022-07-01T05:18:41;13.90;99.90
33492;DHT22;20010;51.488;7.232;2022-07-01T05:21:47;14.00;99.90
33492;DHT22;20010;51.488;7.232;2022-07-01T05:24:44;14.00;99.90
33492;DHT22;20010;51.488;7.232;2022-07-01T05:27:31;14.00;99.90
33492;DHT22;20010;51.488;7.232;2022-07-01T05:30:19;14.00;99.90
33492;DHT22;20010;51.488;7.232;2022-07-01T05:33:06;14.00;99.90
33492;DHT22;20010;51.488;7.232;2022-07-01T05:35:53;14.00;99.90
33492;DHT22;20010;51.488;7.232;2022-07-01T05:38:41;14.00;99.90
33492;DHT22;20010;51.488;7.232;2022-07-01T05:41:28;14.00;99.90
33492;DHT22;20010;51.488;7.232;2022-07-01T05:44:15;14.00;99.90
33492;DHT22;20010;51.488;7.232;2022-07-01T05:47:03;14.00;99.90
33492;DHT22;20010;51.488;7.232;2022-07-01T05:49:50;14.00;99.90
33492;DHT22;20010;51.488;7.232;2022-07-01T05:52:37;14.10;99.90
33492;DHT22;20010;51.488;7.232;2022-07-01T05:55:24;14.10;99.90
33492;DHT22;20010;51.488;7.232;2022-07-01T05:58:12;14.10;99.90
33492;DHT22;20010;51.488;7.232;2022-07-01T06:00:59;14.10;99.90
33492;DHT22;20010;51.488;7.232;2022-07-01T06:03:55;14.10;99.90
33492;DHT22;20010;51.488;7.232;2022-07-01T06:06:42;14.10;99.90
33492;DHT22;20010;51.488;7.232;2022-07-01T06:09:29;14.10;99.90
33492;DHT22;20010;51.488;7.232;2022-07-01T06:12:17;14.20;99.90
33492;DHT22;20010;51.488;7.232;2022-07-01T06:15:10;14.20;99.90
33492;DHT22;20010;51.488;7.232;2022-07-01T06:17:57;14.20;99.90
33492;DHT22;20010;51.488;7.232;2022-07-01T06:20:45;14.30;99.90
33492;DHT22;20010;51.488;7.232;2022-07-01T06:23:32;14.30;99.90
33492;DHT22;20010;51.488;7.232;2022-07-01T06:26:19;14.30;99.90
33492;DHT22;20010;51.488;7.232;2022-07-01T06:29:06;14.40;99.90
33492;DHT22;20010;51.488;7.232;2022-07-01T06:31:54;14.30;99.90
33492;DHT22;20010;51.488;7.232;2022-07-01T06:34:41;14.30;99.90
33492;DHT22;20010;51.488;7.232;2022-07-01T06:37:28;14.30;99.90
33492;DHT22;20010;51.488;7.232;2022-07-01T06:40:18;14.30;99.90
33492;DHT22;20010;51.488;7.232;2022-07-01T06:43:05;14.30;99.90
33492;DHT22;20010;51.488;7.232;2022-07-01T06:45:52;14.30;99.90
33492;DHT22;20010;51.488;7.232;2022-07-01T06:48:39;14.30;99.90
33492;DHT22;20010;51.488;7.232;2022-07-01T06:51:26;14.40;99.90
33492;DHT22;20010;51.488;7.232;2022-07-01T06:54:14;14.60;99.90
33492;DHT22;20010;51.488;7.232;2022-07-01T06:57:05;14.70;99.90
33492;DHT22;20010;51.488;7.232;2022-07-01T06:59:52;14.80;99.90
33492;DHT22;20010;51.488;7.232;2022-07-01T07:02:39;14.90;99.90
33492;DHT22;20010;51.488;7.232;2022-07-01T07:05:28;14.90;99.90
33492;DHT22;20010;51.488;7.232;2022-07-01T07:08:18;15.10;99.90
33492;DHT22;20010;51.488;7.232;2022-07-01T07:11:05;15.20;99.90
33492;DHT22;20010;51.488;7.232;2022-07-01T07:13:53;15.10;99.90
33492;DHT22;20010;51.488;7.232;2022-07-01T07:16:41;15.00;99.90
33492;DHT22;20010;51.488;7.232;2022-07-01T07:19:28;15.00;99.90
33492;DHT22;20010;51.488;7.232;2022-07-01T07:22:15;15.00;99.90
33492;DHT22;20010;51.488;7.232;2022-07-01T07:25:02;14.90;99.90
33492;DHT22;20010;51.488;7.232;2022-07-01T07:27:49;14.90;99.90
33492;DHT22;20010;51.488;7.232;2022-07-01T07:30:36;15.00;99.90
33492;DHT22;20010;51.488;7.232;2022-07-01T07:33:24;15.00;99.90
33492;DHT22;20010;51.488;7.232;2022-07-01T07:36:11;15.10;99.90
33492;DHT22;20010;51.488;7.232;2022-07-01T07:38:58;15.20;99.90
33492;DHT22;20010;51.488;7.232;2022-07-01T07:41:45;15.20;99.90
33492;DHT22;20010;51.488;7.232;2022-07-01T07:44:33;15.40;99.90
33492;DHT22;20010;51.488;7.232;2022-07-01T07:47:20;15.40;99.90
33492;DHT22;20010;51.488;7.232;2022-07-01T07:50:07;15.60;99.90
33492;DHT22;20010;51.488;7.232;2022-07-01T07:52:55;15.60;99.90
33492;DHT22;20010;51.488;7.232;2022-07-01T07:55:42;15.70;99.90
33492;DHT22;20010;51.488;7.232;2022-07-01T07:58:29;15.70;99.90
33492;DHT22;20010;51.488;7.232;2022-07-01T08:01:17;15.70;99.90
33492;DHT22;20010;51.488;7.232;2022-07-01T08:04:04;15.70;99.90
33492;DHT22;20010;51.488;7.232;2022-07-01T08:06:51;15.80;99.90
33492;DHT22;20010;51.488;7.232;2022-07-01T08:09:38;15.80;99.90
33492;DHT22;20010;51.488;7.232;2022-07-01T08:12:26;15.90;99.90
33492;DHT22;20010;51.488;7.232;2022-07-01T08:15:13;16.10;99.90
33492;DHT22;20010;51.488;7.232;2022-07-01T08:18:00;16.10;99.90
33492;DHT22;20010;51.488;7.232;2022-07-01T08:20:48;16.10;99.90
33492;DHT22;20010;51.488;7.232;2022-07-01T08:23:39;16.10;99.90
33492;DHT22;20010;51.488;7.232;2022-07-01T08:26:26;15.90;99.90
33492;DHT22;20010;51.488;7.232;2022-07-01T08:29:13;15.90;99.90
33492;DHT22;20010;51.488;7.232;2022-07-01T08:32:00;15.90;99.90
33492;DHT22;20010;51.488;7.232;2022-07-01T08:34:47;15.90;99.90
33492;DHT22;20010;51.488;7.232;2022-07-01T08:37:35;16.00;99.90
33492;DHT22;20010;51.488;7.232;2022-07-01T08:40:29;15.90;99.90
33492;DHT22;20010;51.488;7.232;2022-07-01T08:43:17;15.90;99.90
33492;DHT22;20010;51.488;7.232;2022-07-01T08:46:04;15.80;99.90
33492;DHT22;20010;51.488;7.232;2022-07-01T08:48:51;15.80;99.90
33492;DHT22;20010;51.488;7.232;2022-07-01T08:51:38;15.80;99.90
33492;DHT22;20010;51.488;7.232;2022-07-01T08:54:26;15.70;99.90
33492;DHT22;20010;51.488;7.232;2022-07-01T08:57:19;15.80;99.90
33492;DHT22;20010;51.488;7.232;2022-07-01T09:00:08;16.00;99.90
33492;DHT22;20010;51.488;7.232;2022-07-01T09:02:58;16.10;99.90
33492;DHT22;20010;51.488;7.232;2022-07-01T09:05:52;16.30;99.90
33492;DHT22;20010;51.488;7.232;2022-07-01T09:08:42;16.40;99.90
33492;DHT22;20010;51.488;7.232;2022-07-01T09:11:29;16.50;99.90
33492;DHT22;20010;51.488;7.232;2022-07-01T09:14:16;16.60;99.90
33492;DHT22;20010;51.488;7.232;2022-07-01T09:17:06;16.60;99.90
33492;DHT22;20010;51.488;7.232;2022-07-01T09:19:53;16.60;99.90
33492;DHT22;20010;51.488;7.232;2022-07-01T09:26:18;16.80;99.90
33492;DHT22;20010;51.488;7.232;2022-07-01T09:29:13;16.70;99.90
33492;DHT22;20010;51.488;7.232;2022-07-01T09:32:02;16.80;99.90
33492;DHT22;20010;51.488;7.232;2022-07-01T09:34:52;16.70;99.90
33492;DHT22;20010;51.488;7.232;2022-07-01T09:37:43;16.60;99.90
33492;DHT22;20010;51.488;7.232;2022-07-01T09:43:34;16.50;99.90
33492;DHT22;20010;51.488;7.232;2022-07-01T09:46:22;16.70;99.90
33492;DHT22;20010;51.488;7.232;2022-07-01T09:49:09;16.90;99.90
33492;DHT22;20010;51.488;7.232;2022-07-01T09:51:57;17.00;99.90
33492;DHT22;20010;51.488;7.232;2022-07-01T09:54:48;17.00;99.90
33492;DHT22;20010;51.488;7.232;2022-07-01T09:57:36;17.20;99.90
33492;DHT22;20010;51.488;7.232;2022-07-01T10:00:23;17.30;99.90
33492;DHT22;20010;51.488;7.232;2022-07-01T10:03:13;17.40;99.90
33492;DHT22;20010;51.488;7.232;2022-07-01T10:12:38;17.50;99.90
33492;DHT22;20010;51.488;7.232;2022-07-01T10:15:26;17.60;99.90
33492;DHT22;20010;51.488;7.232;2022-07-01T10:18:21;17.60;99.90
33492;DHT22;20010;51.488;7.232;2022-07-01T10:21:09;17.70;99.90
33492;DHT22;20010;51.488;7.232;2022-07-01T10:24:13;17.90;99.90
33492;DHT22;20010;51.488;7.232;2022-07-01T10:27:00;17.90;99.90
33492;DHT22;20010;51.488;7.232;2022-07-01T10:29:48;18.00;99.90
33492;DHT22;20010;51.488;7.232;2022-07-01T10:32:51;18.00;99.90
33492;DHT22;20010;51.488;7.232;2022-07-01T10:35:53;18.00;99.90
33492;DHT22;20010;51.488;7.232;2022-07-01T10:48:18;18.40;99.90
33492;DHT22;20010;51.488;7.232;2022-07-01T10:51:06;18.50;99.90
33492;DHT22;20010;51.488;7.232;2022-07-01T10:53:53;18.60;99.90
33492;DHT22;20010;51.488;7.232;2022-07-01T10:56:42;18.70;99.90
33492;DHT22;20010;51.488;7.232;2022-07-01T10:59:29;18.80;99.90
33492;DHT22;20010;51.488;7.232;2022-07-01T11:02:21;18.90;99.90
33492;DHT22;20010;51.488;7.232;2022-07-01T11:05:14;18.70;99.90
33492;DHT22;20010;51.488;7.232;2022-07-01T11:08:01;18.60;99.90
33492;DHT22;20010;51.488;7.232;2022-07-01T11:10:51;18.60;99.90
33492;DHT22;20010;51.488;7.232;2022-07-01T11:13:38;18.60;99.90
33492;DHT22;20010;51.488;7.232;2022-07-01T11:16:27;18.70;99.90
33492;DHT22;20010;51.488;7.232;2022-07-01T11:19:19;18.80;99.90
33492;DHT22;20010;51.488;7.232;2022-07-01T11:22:06;19.20;99.90
33492;DHT22;20010;51.488;7.232;2022-07-01T11:24:56;19.50;99.90
33492;DHT22;20010;51.488;7.232;2022-07-01T11:27:48;19.50;99.90
33492;DHT22;20010;51.488;7.232;2022-07-01T11:30:35;19.40;99.90
33492;DHT22;20010;51.488;7.232;2022-07-01T11:33:22;19.30;99.90
33492;DHT22;20010;51.488;7.232;2022-07-01T11:36:09;19.30;99.90
33492;DHT22;20010;51.488;7.232;2022-07-01T11:39:17;19.50;99.90
33492;DHT22;20010;51.488;7.232;2022-07-01T11:42:11;19.80;99.90
33492;DHT22;20010;51.488;7.232;2022-07-01T11:44:58;20.20;99.90
33492;DHT22;20010;51.488;7.232;2022-07-01T11:47:46;20.50;99.90
33492;DHT22;20010;51.488;7.232;2022-07-01T11:50:33;20.40;99.90
33492;DHT22;20010;51.488;7.232;2022-07-01T11:53:20;20.30;99.90
33492;DHT22;20010;51.488;7.232;2022-07-01T11:56:07;20.30;99.90
33492;DHT22;20010;51.488;7.232;2022-07-01T11:58:55;20.10;99.90
33492;DHT22;20010;51.488;7.232;2022-07-01T12:01:51;20.00;99.90
33492;DHT22;20010;51.488;7.232;2022-07-01T12:04:40;20.00;99.90
33492;DHT22;20010;51.488;7.232;2022-07-01T12:07:28;20.00;99.90
33492;DHT22;20010;51.488;7.232;2022-07-01T12:10:16;20.20;99.90
33492;DHT22;20010;51.488;7.232;2022-07-01T12:13:20;20.00;99.90
33492;DHT22;20010;51.488;7.232;2022-07-01T12:16:09;20.00;99.90
33492;DHT22;20010;51.488;7.232;2022-07-01T12:19:00;20.20;99.90
33492;DHT22;20010;51.488;7.232;2022-07-01T12:21:56;20.20;99.90
33492;DHT22;20010;51.488;7.232;2022-07-01T12:24:47;20.50;99.90
33492;DHT22;20010;51.488;7.232;2022-07-01T12:27:35;20.90;99.90
33492;DHT22;20010;51.488;7.232;2022-07-01T12:30:24;21.20;99.90
33492;DHT22;20010;51.488;7.232;2022-07-01T12:33:18;21.00;99.90
33492;DHT22;20010;51.488;7.232;2022-07-01T12:36:07;20.80;99.90
33492;DHT22;20010;51.488;7.232;2022-07-01T12:39:03;20.70;99.90
33492;DHT22;20010;51.488;7.232;2022-07-01T12:41:51;20.30;99.90
33492;DHT22;20010;51.488;7.232;2022-07-01T12:44:44;20.00;99.80
33492;DHT22;20010;51.488;7.232;2022-07-01T12:47:33;20.00;99.40
33492;DHT22;20010;51.488;7.232;2022-07-01T12:50:25;20.30;99.90
33492;DHT22;20010;51.488;7.232;2022-07-01T12:53:18;21.10;99.60
33492;DHT22;20010;51.488;7.232;2022-07-01T12:56:06;21.50;99.90
33492;DHT22;20010;51.488;7.232;2022-07-01T12:58:54;21.90;98.10
33492;DHT22;20010;51.488;7.232;2022-07-01T13:01:41;21.80;96.40
33492;DHT22;20010;51.488;7.232;2022-07-01T13:04:29;21.30;97.30
33492;DHT22;20010;51.488;7.232;2022-07-01T13:07:16;21.30;97.20
33492;DHT22;20010;51.488;7.232;2022-07-01T13:10:04;21.00;97.50
33492;DHT22;20010;51.488;7.232;2022-07-01T13:12:52;21.20;97.90
33492;DHT22;20010;51.488;7.232;2022-07-01T13:15:39;21.40;95.80
33492;DHT22;20010;51.488;7.232;2022-07-01T13:18:26;21.70;95.10
33492;DHT22;20010;51.488;7.232;2022-07-01T13:21:14;21.70;94.80
33492;DHT22;20010;51.488;7.232;2022-07-01T13:24:01;21.30;95.10
33492;DHT22;20010;51.488;7.232;2022-07-01T13:27:08;21.20;95.50
33492;DHT22;20010;51.488;7.232;2022-07-01T13:29:55;21.10;95.00
33492;DHT22;20010;51.488;7.232;2022-07-01T13:32:43;21.00;95.70
33492;DHT22;20010;51.488;7.232;2022-07-01T13:35:31;21.10;95.90
33492;DHT22;20010;51.488;7.232;2022-07-01T13:38:18;20.80;94.70
33492;DHT22;20010;51.488;7.232;2022-07-01T13:41:05;20.80;95.00
33492;DHT22;20010;51.488;7.232;2022-07-01T13:43:52;21.00;94.20
33492;DHT22;20010;51.488;7.232;2022-07-01T13:46:39;21.20;93.90
33492;DHT22;20010;51.488;7.232;2022-07-01T13:49:33;20.90;93.70
33492;DHT22;20010;51.488;7.232;2022-07-01T13:52:20;20.80;93.80
33492;DHT22;20010;51.488;7.232;2022-07-01T13:55:07;21.20;93.80
33492;DHT22;20010;51.488;7.232;2022-07-01T13:57:54;21.10;92.60
33492;DHT22;20010;51.488;7.232;2022-07-01T14:00:41;21.30;94.00
33492;DHT22;20010;51.488;7.232;2022-07-01T14:03:28;21.90;92.00
33492;DHT22;20010;51.488;7.232;2022-07-01T14:06:16;22.30;91.20
33492;DHT22;20010;51.488;7.232;2022-07-01T14:09:04;22.40;91.60
33492;DHT22;20010;51.488;7.232;2022-07-01T14:11:51;21.90;91.40
33492;DHT22;20010;51.488;7.232;2022-07-01T14:14:39;21.60;92.80
33492;DHT22;20010;51.488;7.232;2022-07-01T14:17:26;21.30;92.70
33492;DHT22;20010;51.488;7.232;2022-07-01T14:20:13;21.20;92.70
33492;DHT22;20010;51.488;7.232;2022-07-01T14:23:00;21.30;91.80
33492;DHT22;20010;51.488;7.232;2022-07-01T14:25:48;21.40;93.70
33492;DHT22;20010;51.488;7.232;2022-07-01T14:28:35;21.70;93.30
33492;DHT22;20010;51.488;7.232;2022-07-01T14:31:22;21.70;92.70
33492;DHT22;20010;51.488;7.232;2022-07-01T14:34:09;21.60;92.40
33492;DHT22;20010;51.488;7.232;2022-07-01T14:36:57;21.90;92.20
33492;DHT22;20010;51.488;7.232;2022-07-01T14:39:44;22.10;92.00
33492;DHT22;20010;51.488;7.232;2022-07-01T14:42:31;22.00;92.40
33492;DHT22;20010;51.488;7.232;2022-07-01T14:45:18;22.00;91.00
33492;DHT22;20010;51.488;7.232;2022-07-01T14:48:07;22.20;91.80
33492;DHT22;20010;51.488;7.232;2022-07-01T14:50:55;21.90;91.40
33492;DHT22;20010;51.488;7.232;2022-07-01T14:53:42;21.70;92.20
33492;DHT22;20010;51.488;7.232;2022-07-01T14:56:32;21.80;91.00
33492;DHT22;20010;51.488;7.232;2022-07-01T14:59:19;22.00;90.60
33492;DHT22;20010;51.488;7.232;2022-07-01T15:02:06;22.20;90.60
33492;DHT22;20010;51.488;7.232;2022-07-01T15:04:53;22.40;91.20
33492;DHT22;20010;51.488;7.232;2022-07-01T15:07:40;22.30;90.70
33492;DHT22;20010;51.488;7.232;2022-07-01T15:10:28;22.00;90.50
33492;DHT22;20010;51.488;7.232;2022-07-01T15:13:15;22.50;91.50
33492;DHT22;20010;51.488;7.232;2022-07-01T15:16:03;23.00;85.80
33492;DHT22;20010;51.488;7.232;2022-07-01T15:18:50;23.20;82.30
33492;DHT22;20010;51.488;7.232;2022-07-01T15:21:37;23.40;84.30
33492;DHT22;20010;51.488;7.232;2022-07-01T15:24:25;23.20;85.40
33492;DHT22;20010;51.488;7.232;2022-07-01T15:27:12;23.00;85.20
33492;DHT22;20010;51.488;7.232;2022-07-01T15:29:59;22.80;85.60
33492;DHT22;20010;51.488;7.232;2022-07-01T15:32:47;23.00;86.30
33492;DHT22;20010;51.488;7.232;2022-07-01T15:35:34;23.10;86.20
33492;DHT22;20010;51.488;7.232;2022-07-01T15:38:21;22.70;87.00
33492;DHT22;20010;51.488;7.232;2022-07-01T15:41:09;22.20;88.50
33492;DHT22;20010;51.488;7.232;2022-07-01T15:43:57;22.20;88.60
33492;DHT22;20010;51.488;7.232;2022-07-01T15:46:44;22.60;89.70
33492;DHT22;20010;51.488;7.232;2022-07-01T15:49:31;22.70;88.10
33492;DHT22;20010;51.488;7.232;2022-07-01T15:52:18;22.70;87.20
33492;DHT22;20010;51.488;7.232;2022-07-01T15:55:06;23.00;87.50
33492;DHT22;20010;51.488;7.232;2022-07-01T15:57:53;23.50;86.80
33492;DHT22;20010;51.488;7.232;2022-07-01T16:00:43;23.80;84.30
33492;DHT22;20010;51.488;7.232;2022-07-01T16:03:31;24.00;82.60
33492;DHT22;20010;51.488;7.232;2022-07-01T16:06:20;24.30;77.20
33492;DHT22;20010;51.488;7.232;2022-07-01T16:09:07;24.30;77.10
33492;DHT22;20010;51.488;7.232;2022-07-01T16:11:55;24.40;79.40
33492;DHT22;20010;51.488;7.232;2022-07-01T16:14:42;24.50;76.00
33492;DHT22;20010;51.488;7.232;2022-07-01T16:17:34;24.50;77.60
33492;DHT22;20010;51.488;7.232;2022-07-01T16:20:22;24.50;78.30
33492;DHT22;20010;51.488;7.232;2022-07-01T16:23:13;24.50;76.20
33492;DHT22;20010;51.488;7.232;2022-07-01T16:26:01;24.60;78.50
33492;DHT22;20010;51.488;7.232;2022-07-01T16:28:50;24.40;77.00
33492;DHT22;20010;51.488;7.232;2022-07-01T16:31:38;24.20;76.20
33492;DHT22;20010;51.488;7.232;2022-07-01T16:34:26;24.30;77.20
33492;DHT22;20010;51.488;7.232;2022-07-01T16:37:14;24.80;77.80
33492;DHT22;20010;51.488;7.232;2022-07-01T16:40:07;25.20;78.40
33492;DHT22;20010;51.488;7.232;2022-07-01T16:42:55;25.00;74.60
33492;DHT22;20010;51.488;7.232;2022-07-01T16:45:44;24.40;73.90
33492;DHT22;20010;51.488;7.232;2022-07-01T16:48:39;23.60;76.20
33492;DHT22;20010;51.488;7.232;2022-07-01T16:51:32;23.40;77.20
33492;DHT22;20010;51.488;7.232;2022-07-01T16:54:24;23.20;79.00
33492;DHT22;20010;51.488;7.232;2022-07-01T16:57:14;23.10;78.40
33492;DHT22;20010;51.488;7.232;2022-07-01T17:00:07;23.40;78.60
33492;DHT22;20010;51.488;7.232;2022-07-01T17:02:56;23.40;78.40
33492;DHT22;20010;51.488;7.232;2022-07-01T17:05:43;22.90;78.90
33492;DHT22;20010;51.488;7.232;2022-07-01T17:08:35;22.50;80.20
33492;DHT22;20010;51.488;7.232;2022-07-01T17:11:23;22.10;81.30
33492;DHT22;20010;51.488;7.232;2022-07-01T17:14:12;21.70;81.40
33492;DHT22;20010;51.488;7.232;2022-07-01T17:17:00;21.40;83.30
33492;DHT22;20010;51.488;7.232;2022-07-01T17:19:47;21.30;85.60
33492;DHT22;20010;51.488;7.232;2022-07-01T17:31:35;21.10;86.80
33492;DHT22;20010;51.488;7.232;2022-07-01T17:34:28;21.10;87.00
33492;DHT22;20010;51.488;7.232;2022-07-01T17:37:16;21.00;86.70
33492;DHT22;20010;51.488;7.232;2022-07-01T17:40:04;21.00;87.80
33492;DHT22;20010;51.488;7.232;2022-07-01T17:42:53;20.90;87.00
33492;DHT22;20010;51.488;7.232;2022-07-01T17:45:43;20.80;87.30
33492;DHT22;20010;51.488;7.232;2022-07-01T17:48:33;20.70;88.20
33492;DHT22;20010;51.488;7.232;2022-07-01T17:51:21;20.70;88.10
33492;DHT22;20010;51.488;7.232;2022-07-01T17:54:12;20.70;88.90
33492;DHT22;20010;51.488;7.232;2022-07-01T17:57:00;20.70;89.30
33492;DHT22;20010;51.488;7.232;2022-07-01T17:59:49;20.70;88.70
33492;DHT22;20010;51.488;7.232;2022-07-01T18:02:38;20.80;87.80
33492;DHT22;20010;51.488;7.232;2022-07-01T18:05:28;20.70;87.30
33492;DHT22;20010;51.488;7.232;2022-07-01T18:08:16;20.70;86.70
33492;DHT22;20010;51.488;7.232;2022-07-01T18:11:22;20.80;85.80
33492;DHT22;20010;51.488;7.232;2022-07-01T18:20:05;20.70;84.90
33492;DHT22;20010;51.488;7.232;2022-07-01T18:23:15;20.70;85.40